createdAt,value
2019-04-29T00:01:37.202Z,10.20
2019-04-29T00:04:07.607Z,9.73
2019-04-29T00:06:38.116Z,10.18
2019-04-29T00:09:10.660Z,10.50
2019-04-29T00:11:41.409Z,10.95
2019-04-29T00:14:11.852Z,10.93
2019-04-29T00:16:47.844Z,10.25
2019-04-29T00:19:49.420Z,9.75
2019-04-29T00:22:19.876Z,11.10
2019-04-29T00:24:50.409Z,10.10
2019-04-29T00:27:20.977Z,11.03
2019-04-29T00:29:51.452Z,11.00
2019-04-29T00:32:22.043Z,9.65
2019-04-29T00:34:52.427Z,10.80
2019-04-29T00:37:37.778Z,9.08
2019-04-29T00:40:39.346Z,10.65
2019-04-29T00:43:20.212Z,10.00
2019-04-29T00:45:50.736Z,10.68
2019-04-29T00:48:21.274Z,9.45
2019-04-29T00:50:51.702Z,10.58
2019-04-29T00:53:22.287Z,10.93
2019-04-29T00:55:53.560Z,9.93
2019-04-29T00:58:24.022Z,10.95
2019-04-29T01:00:54.460Z,11.45
2019-04-29T01:03:25.026Z,10.70
2019-04-29T01:05:55.451Z,11.00
2019-04-29T01:08:25.956Z,10.88
2019-04-29T01:10:56.603Z,11.22
2019-04-29T01:13:27.119Z,10.60
2019-04-29T01:15:57.561Z,11.03
2019-04-29T01:18:28.035Z,9.78
2019-04-29T01:20:58.516Z,10.85
2019-04-29T01:23:28.968Z,12.10
2019-04-29T01:26:03.506Z,9.98
2019-04-29T01:28:43.582Z,10.67
2019-04-29T01:31:18.443Z,10.53
2019-04-29T01:33:50.484Z,10.70
2019-04-29T01:36:46.093Z,10.35
2019-04-29T01:39:16.848Z,10.35
2019-04-29T01:42:05.228Z,11.78
2019-04-29T01:44:37.128Z,10.98
2019-04-29T01:47:07.551Z,11.33
2019-04-29T01:49:38.942Z,11.97
2019-04-29T01:52:09.490Z,10.65
2019-04-29T01:54:39.989Z,11.43
2019-04-29T01:57:11.508Z,11.80
2019-04-29T01:59:41.909Z,11.03
2019-04-29T02:02:12.410Z,10.20
2019-04-29T02:04:42.838Z,12.00
2019-04-29T02:07:13.276Z,11.33
2019-04-29T02:10:15.143Z,11.05
2019-04-29T02:12:45.650Z,10.82
2019-04-29T02:15:16.059Z,12.20
2019-04-29T02:17:46.557Z,11.33
2019-04-29T02:20:16.850Z,11.75
2019-04-29T02:23:12.062Z,10.60
2019-04-29T02:25:44.125Z,11.10
2019-04-29T02:28:14.581Z,11.83
2019-04-29T02:30:47.165Z,11.63
2019-04-29T02:33:17.677Z,12.00
2019-04-29T02:35:48.138Z,12.20
2019-04-29T02:38:52.901Z,12.15
2019-04-29T02:41:35.006Z,12.58
2019-04-29T02:44:07.247Z,12.75
2019-04-29T02:46:37.787Z,12.93
2019-04-29T02:49:08.298Z,12.25
2019-04-29T02:51:48.596Z,12.80
2019-04-29T02:54:19.052Z,12.35
2019-04-29T02:57:08.540Z,11.35
2019-04-29T02:59:43.020Z,12.63
2019-04-29T03:02:19.286Z,12.47
2019-04-29T03:05:14.576Z,12.27
2019-04-29T03:07:44.985Z,11.90
2019-04-29T03:10:15.314Z,11.48
2019-04-29T03:12:45.800Z,11.70
2019-04-29T03:15:24.684Z,12.10
2019-04-29T03:17:55.119Z,12.37
2019-04-29T03:20:30.607Z,13.35
2019-04-29T03:23:09.002Z,12.93
2019-04-29T03:25:39.432Z,12.65
2019-04-29T03:28:09.922Z,11.80
2019-04-29T03:30:40.489Z,13.98
2019-04-29T03:33:10.921Z,12.63
2019-04-29T03:35:41.237Z,13.32
2019-04-29T03:38:11.749Z,13.62
2019-04-29T03:40:42.515Z,13.22
2019-04-29T03:43:13.006Z,13.70
2019-04-29T03:45:43.463Z,13.83
2019-04-29T03:48:14.073Z,13.30
2019-04-29T03:50:44.343Z,13.32
2019-04-29T03:53:14.751Z,12.37
2019-04-29T03:55:45.255Z,13.15
2019-04-29T03:58:15.843Z,13.20
2019-04-29T04:00:47.878Z,13.25
2019-04-29T04:03:25.815Z,14.18
2019-04-29T04:06:21.289Z,13.90
2019-04-29T04:09:09.388Z,12.88
2019-04-29T04:11:39.849Z,13.23
2019-04-29T04:14:10.357Z,13.85
2019-04-29T04:17:06.366Z,13.90
2019-04-29T04:19:36.849Z,15.63
2019-04-29T04:22:07.370Z,15.25
2019-04-29T04:24:37.826Z,13.95
2019-04-29T04:27:08.331Z,13.90
2019-04-29T04:29:38.916Z,13.77
2019-04-29T04:32:09.316Z,14.70
2019-04-29T04:34:39.851Z,14.13
2019-04-29T04:37:10.335Z,14.65
2019-04-29T04:39:46.829Z,14.35
2019-04-29T04:42:17.370Z,14.15
2019-04-29T04:44:50.808Z,13.65
2019-04-29T04:47:21.337Z,14.18
2019-04-29T04:49:51.892Z,13.62
2019-04-29T04:52:22.423Z,13.80
2019-04-29T04:54:54.465Z,13.45
2019-04-29T04:57:24.896Z,15.30
2019-04-29T04:59:55.457Z,13.60
2019-04-29T05:02:26.811Z,15.10
2019-04-29T05:04:57.324Z,14.33
2019-04-29T05:07:27.724Z,14.60
2019-04-29T05:09:58.164Z,15.18
2019-04-29T05:12:28.627Z,15.72
2019-04-29T05:14:59.005Z,15.05
2019-04-29T05:17:29.558Z,14.78
2019-04-29T05:20:00.078Z,15.53
2019-04-29T05:22:30.597Z,13.88
2019-04-29T05:25:01.008Z,14.80
2019-04-29T05:27:31.451Z,15.23
2019-04-29T05:30:02.029Z,15.05
2019-04-29T05:32:32.787Z,15.60
2019-04-29T05:35:05.294Z,16.45
2019-04-29T05:37:50.667Z,16.67
2019-04-29T05:40:45.067Z,16.75
2019-04-29T05:43:17.755Z,15.83
2019-04-29T05:45:55.172Z,16.02
2019-04-29T05:48:27.703Z,17.17
2019-04-29T05:51:17.010Z,17.67
2019-04-29T05:53:54.866Z,17.42
2019-04-29T05:56:20.900Z,17.27
2019-04-29T05:58:51.431Z,16.27
2019-04-29T06:01:25.428Z,16.70
2019-04-29T06:03:55.927Z,16.70
2019-04-29T06:06:26.810Z,15.93
2019-04-29T06:08:57.521Z,16.55
2019-04-29T06:11:28.151Z,16.42
2019-04-29T06:14:05.964Z,15.58
2019-04-29T06:16:39.564Z,17.23
2019-04-29T06:19:16.743Z,16.15
2019-04-29T06:21:47.605Z,15.10
2019-04-29T06:24:18.744Z,16.67
2019-04-29T06:26:57.499Z,15.45
2019-04-29T06:29:30.564Z,17.57
2019-04-29T06:32:03.733Z,16.87
2019-04-29T06:34:40.086Z,14.78
2019-04-29T06:37:06.852Z,16.07
2019-04-29T06:39:37.824Z,15.68
2019-04-29T06:42:10.042Z,15.20
2019-04-29T06:44:44.458Z,15.10
2019-04-29T06:47:16.705Z,16.10
2019-04-29T06:49:45.796Z,15.78
2019-04-29T06:52:16.537Z,16.20
2019-04-29T06:54:53.102Z,16.52
2019-04-29T06:57:25.682Z,14.93
2019-04-29T06:59:59.084Z,16.42
2019-04-29T07:02:31.276Z,14.83
2019-04-29T07:05:04.972Z,14.65
2019-04-29T07:07:35.776Z,16.40
2019-04-29T07:10:09.243Z,15.15
2019-04-29T07:12:47.106Z,15.88
2019-04-29T07:15:14.973Z,15.28
2019-04-29T07:17:45.569Z,15.13
2019-04-29T07:20:16.178Z,15.72
2019-04-29T07:22:46.911Z,16.20
2019-04-29T07:25:31.464Z,14.58
2019-04-29T07:27:55.057Z,15.83
2019-04-29T07:32:55.706Z,14.47
2019-04-29T07:35:26.251Z,15.58
2019-04-29T07:37:57.078Z,16.15
2019-04-29T07:40:27.649Z,16.23
2019-04-29T07:42:58.339Z,16.25
2019-04-29T07:48:26.021Z,17.17
2019-04-29T07:50:59.422Z,16.00
2019-04-29T07:53:36.738Z,16.07
2019-04-29T07:56:06.474Z,15.68
2019-04-29T07:58:34.255Z,15.60
2019-04-29T08:01:06.382Z,16.30
2019-04-29T08:03:37.124Z,15.25
2019-04-29T08:06:07.556Z,15.23
2019-04-29T08:08:38.039Z,14.25
2019-04-29T08:11:11.292Z,16.20
2019-04-29T08:13:50.820Z,16.05
2019-04-29T08:16:22.141Z,13.88
2019-04-29T08:18:53.614Z,14.43
2019-04-29T08:21:38.890Z,15.55
2019-04-29T08:24:11.599Z,14.47
2019-04-29T08:26:47.904Z,14.93
2019-04-29T08:29:22.464Z,13.80
2019-04-29T08:31:57.121Z,13.62
2019-04-29T08:34:25.396Z,13.90
2019-04-29T08:36:56.830Z,13.32
2019-04-29T08:39:29.367Z,15.10
2019-04-29T08:42:03.754Z,14.30
2019-04-29T08:44:59.174Z,14.35
2019-04-29T08:47:31.893Z,13.85
2019-04-29T08:50:02.394Z,14.50
2019-04-29T08:52:38.187Z,13.53
2019-04-29T08:55:06.648Z,15.08
2019-04-29T08:57:37.558Z,13.80
2019-04-29T09:00:09.640Z,15.78
2019-04-29T09:02:46.908Z,14.40
2019-04-29T09:05:15.783Z,15.08
2019-04-29T09:07:47.033Z,15.45
2019-04-29T09:10:17.834Z,15.48
2019-04-29T09:12:48.309Z,14.90
2019-04-29T09:15:19.384Z,15.68
2019-04-29T09:17:51.216Z,15.45
2019-04-29T09:20:23.149Z,15.20
2019-04-29T09:22:58.228Z,16.60
2019-04-29T09:26:06.184Z,16.35
2019-04-29T09:28:36.745Z,17.27
2019-04-29T09:31:09.909Z,19.45
2019-04-29T09:33:48.990Z,17.70
2019-04-29T09:39:21.256Z,17.27
2019-04-29T09:42:20.375Z,17.02
2019-04-29T09:47:55.844Z,18.00
2019-04-29T09:50:28.924Z,17.00
2019-04-29T09:53:05.950Z,15.88
2019-04-29T09:55:45.593Z,16.23
2019-04-29T09:58:16.731Z,16.60
2019-04-29T10:01:06.227Z,16.97
2019-04-29T10:03:50.966Z,19.90
2019-04-29T10:06:27.657Z,17.82
2019-04-29T10:08:58.144Z,19.48
2019-04-29T10:11:28.842Z,17.73
2019-04-29T10:13:59.859Z,18.60
2019-04-29T10:16:40.362Z,17.10
2019-04-29T10:19:37.459Z,17.77
2019-04-29T10:22:08.015Z,17.77
2019-04-29T10:24:38.437Z,17.65
2019-04-29T10:27:10.010Z,17.92
2019-04-29T10:29:41.963Z,16.93
2019-04-29T10:32:12.926Z,17.17
2019-04-29T10:34:44.864Z,16.95
2019-04-29T10:37:15.627Z,17.25
2019-04-29T10:39:55.050Z,17.57
2019-04-29T10:42:36.250Z,18.30
2019-04-29T10:45:18.547Z,17.62
2019-04-29T10:48:05.122Z,17.35
2019-04-29T10:50:37.699Z,16.12
2019-04-29T10:53:11.025Z,17.87
2019-04-29T10:55:42.146Z,17.65
2019-04-29T10:58:13.619Z,17.10
2019-04-29T11:04:08.732Z,17.32
2019-04-29T11:06:44.332Z,18.00
2019-04-29T11:09:33.681Z,18.02
2019-04-29T11:12:09.120Z,17.92
2019-04-29T11:14:39.681Z,16.62
2019-04-29T11:17:16.361Z,17.27
2019-04-29T11:20:04.461Z,16.67
2019-04-29T11:22:39.461Z,17.87
2019-04-29T11:25:33.485Z,17.20
2019-04-29T11:28:06.637Z,16.73
2019-04-29T11:30:43.566Z,16.37
2019-04-29T11:33:25.395Z,16.12
2019-04-29T11:36:05.890Z,16.32
2019-04-29T11:38:38.310Z,16.07
2019-04-29T11:41:19.555Z,16.48
2019-04-29T11:43:46.688Z,16.12
2019-04-29T11:46:16.803Z,15.50
2019-04-29T11:48:51.899Z,15.65
2019-04-29T11:51:41.717Z,15.20
2019-04-29T11:54:12.752Z,15.50
2019-04-29T11:56:41.993Z,14.93
2019-04-29T11:59:35.420Z,15.43
2019-04-29T12:02:44.742Z,15.35
2019-04-29T12:05:13.375Z,15.58
2019-04-29T12:07:43.826Z,15.93
2019-04-29T12:10:14.273Z,15.55
2019-04-29T12:12:47.745Z,16.20
2019-04-29T12:15:28.829Z,16.32
2019-04-29T12:18:20.850Z,16.35
2019-04-29T12:21:13.075Z,16.67
2019-04-29T12:23:43.575Z,15.90
2019-04-29T12:26:16.558Z,15.32
2019-04-29T12:28:49.496Z,15.45
2019-04-29T12:31:49.196Z,15.88
2019-04-29T12:34:30.077Z,15.60
2019-04-29T12:37:03.618Z,15.55
2019-04-29T12:39:56.089Z,15.90
2019-04-29T12:45:28.162Z,14.40
2019-04-29T12:48:25.095Z,15.45
2019-04-29T12:50:58.138Z,17.57
2019-04-29T12:53:49.250Z,17.00
2019-04-29T12:56:27.286Z,17.55
2019-04-29T12:59:01.811Z,22.55
2019-04-29T13:01:58.307Z,22.95
2019-04-29T13:04:45.002Z,21.42
